createdAt,value
2018-12-15T00:02:17.554Z,99.90
2018-12-15T00:04:46.948Z,99.90
2018-12-15T00:07:16.301Z,99.90
2018-12-15T00:09:45.709Z,99.90
2018-12-15T00:12:15.201Z,99.90
2018-12-15T00:14:44.639Z,99.90
2018-12-15T00:17:14.268Z,99.90
2018-12-15T00:19:43.660Z,99.90
2018-12-15T00:22:13.138Z,99.90
2018-12-15T00:24:42.609Z,99.90
2018-12-15T00:27:13.492Z,99.90
2018-12-15T00:29:43.001Z,99.90
2018-12-15T00:32:12.476Z,99.90
2018-12-15T00:34:41.950Z,99.90
2018-12-15T00:37:11.321Z,99.90
2018-12-15T00:39:40.702Z,99.90
2018-12-15T00:42:10.176Z,99.90
2018-12-15T00:44:39.605Z,99.90
2018-12-15T00:47:13.665Z,99.90
2018-12-15T00:49:40.579Z,99.90
2018-12-15T00:52:10.076Z,99.90
2018-12-15T00:54:39.554Z,99.90
2018-12-15T00:57:09.026Z,99.90
2018-12-15T00:59:38.548Z,99.90
2018-12-15T01:02:07.988Z,99.90
2018-12-15T01:04:37.469Z,99.90
2018-12-15T01:07:07.058Z,99.90
2018-12-15T01:09:36.385Z,99.90
2018-12-15T01:12:05.880Z,99.90
2018-12-15T01:14:35.333Z,99.90
2018-12-15T01:17:04.885Z,99.90
2018-12-15T01:19:34.357Z,99.90
2018-12-15T01:22:03.717Z,99.90
2018-12-15T01:24:33.085Z,99.90
2018-12-15T01:27:02.453Z,99.90
2018-12-15T01:29:31.861Z,99.90
2018-12-15T01:32:01.250Z,99.90
2018-12-15T01:34:30.646Z,99.90
2018-12-15T01:36:59.985Z,99.90
2018-12-15T01:39:29.378Z,99.90
2018-12-15T01:41:58.774Z,99.90
2018-12-15T01:44:28.156Z,99.90
2018-12-15T01:46:57.513Z,99.90
2018-12-15T01:49:27.061Z,99.90
2018-12-15T01:51:56.457Z,99.90
2018-12-15T01:54:25.963Z,99.90
2018-12-15T01:56:55.445Z,99.90
2018-12-15T01:59:24.966Z,99.90
2018-12-15T02:01:54.581Z,99.90
2018-12-15T02:04:23.942Z,99.90
2018-12-15T02:06:53.333Z,99.90
2018-12-15T02:09:22.849Z,99.90
2018-12-15T02:11:52.448Z,99.90
2018-12-15T02:14:21.805Z,99.90
2018-12-15T02:16:51.169Z,99.90
2018-12-15T02:19:20.569Z,99.90
2018-12-15T02:21:50.085Z,99.90
2018-12-15T02:24:19.669Z,99.90
2018-12-15T02:26:49.087Z,99.90
2018-12-15T02:29:18.436Z,99.90
2018-12-15T02:31:47.825Z,99.90
2018-12-15T02:34:17.225Z,99.90
2018-12-15T02:36:46.753Z,99.90
2018-12-15T02:39:16.126Z,99.90
2018-12-15T02:41:47.343Z,99.90
2018-12-15T02:44:16.894Z,99.90
2018-12-15T02:46:46.259Z,99.90
2018-12-15T02:49:15.730Z,99.90
2018-12-15T02:51:45.105Z,99.90
2018-12-15T02:54:14.510Z,99.90
2018-12-15T02:56:43.987Z,99.90
2018-12-15T02:59:13.473Z,99.90
2018-12-15T03:01:42.890Z,99.90
2018-12-15T03:04:12.373Z,99.90
2018-12-15T03:06:42.010Z,99.90
2018-12-15T03:09:11.603Z,99.90
2018-12-15T03:11:41.057Z,99.90
2018-12-15T03:14:10.421Z,99.90
2018-12-15T03:16:50.037Z,99.90
2018-12-15T03:19:19.518Z,99.90
2018-12-15T03:21:48.870Z,99.90
2018-12-15T03:24:18.341Z,99.90
2018-12-15T03:26:48.103Z,99.90
2018-12-15T03:29:17.581Z,99.90
2018-12-15T03:31:47.110Z,99.90
2018-12-15T03:34:16.491Z,99.90
2018-12-15T03:36:45.968Z,99.90
2018-12-15T03:39:15.431Z,99.90
2018-12-15T03:41:44.830Z,99.90
2018-12-15T03:44:14.268Z,99.90
2018-12-15T03:46:43.714Z,99.90
2018-12-15T03:49:13.013Z,99.90
2018-12-15T03:51:42.569Z,99.90
2018-12-15T03:54:12.019Z,99.90
2018-12-15T03:56:41.565Z,99.90
2018-12-15T03:59:11.035Z,99.90
2018-12-15T04:01:40.393Z,99.90
2018-12-15T04:04:09.817Z,99.90
2018-12-15T04:06:39.444Z,99.90
2018-12-15T04:09:09.061Z,99.90
2018-12-15T04:11:38.495Z,99.90
2018-12-15T04:14:07.877Z,99.90
2018-12-15T04:16:37.251Z,99.90
2018-12-15T04:19:06.640Z,99.90
2018-12-15T04:21:36.122Z,99.90
2018-12-15T04:24:05.556Z,99.90
2018-12-15T04:26:35.049Z,99.90
2018-12-15T04:29:04.621Z,99.90
2018-12-15T04:31:33.981Z,99.90
2018-12-15T04:34:03.486Z,99.90
2018-12-15T04:36:33.038Z,99.90
2018-12-15T04:39:02.645Z,99.90
2018-12-15T04:41:32.057Z,99.90
2018-12-15T04:44:01.598Z,99.90
2018-12-15T04:46:31.073Z,99.90
2018-12-15T04:49:00.549Z,99.90
2018-12-15T04:51:30.173Z,99.90
2018-12-15T04:53:59.535Z,99.90
2018-12-15T04:56:29.208Z,99.90
2018-12-15T04:58:58.580Z,99.90
2018-12-15T05:01:27.931Z,99.90
2018-12-15T05:03:57.362Z,99.90
2018-12-15T05:06:26.809Z,99.90
2018-12-15T05:08:56.182Z,99.90
2018-12-15T05:11:25.645Z,99.90
2018-12-15T05:13:55.096Z,99.90
2018-12-15T05:16:24.537Z,99.90
2018-12-15T05:18:54.043Z,99.90
2018-12-15T05:21:23.559Z,99.90
2018-12-15T05:23:53.011Z,99.90
2018-12-15T05:26:22.425Z,99.90
2018-12-15T05:28:51.889Z,99.90
2018-12-15T05:31:21.348Z,99.90
2018-12-15T05:33:50.922Z,99.90
2018-12-15T05:36:20.349Z,99.90
2018-12-15T05:38:49.705Z,99.90
2018-12-15T05:41:19.189Z,99.90
2018-12-15T05:43:48.587Z,99.90
2018-12-15T05:46:18.171Z,99.90
2018-12-15T05:48:47.689Z,99.90
2018-12-15T05:51:17.061Z,99.90
2018-12-15T05:53:46.445Z,99.90
2018-12-15T05:56:15.898Z,99.90
2018-12-15T05:58:45.434Z,99.90
2018-12-15T06:01:14.917Z,99.90
2018-12-15T06:03:44.313Z,99.90
2018-12-15T06:06:13.669Z,99.90
2018-12-15T06:08:43.247Z,99.90
2018-12-15T06:11:12.865Z,99.90
2018-12-15T06:13:42.233Z,99.90
2018-12-15T06:16:11.759Z,99.90
2018-12-15T06:18:41.124Z,99.90
2018-12-15T06:21:10.558Z,99.90
2018-12-15T06:23:40.030Z,99.90
2018-12-15T06:26:09.556Z,99.90
2018-12-15T06:28:39.030Z,99.90
2018-12-15T06:31:08.513Z,99.90
2018-12-15T06:33:37.917Z,99.90
2018-12-15T06:36:07.408Z,99.90
2018-12-15T06:38:36.852Z,99.90
2018-12-15T06:41:06.490Z,99.90
2018-12-15T06:43:36.317Z,99.90
2018-12-15T06:46:06.029Z,99.90
2018-12-15T06:48:38.246Z,99.90
2018-12-15T06:51:06.941Z,99.90
2018-12-15T06:53:36.272Z,99.90
2018-12-15T06:56:05.704Z,99.90
2018-12-15T06:58:35.177Z,99.90
2018-12-15T07:01:04.617Z,99.90
2018-12-15T07:03:33.998Z,99.90
2018-12-15T07:06:03.423Z,99.90
2018-12-15T07:08:32.893Z,99.90
2018-12-15T07:11:02.271Z,99.90
2018-12-15T07:13:31.816Z,99.90
2018-12-15T07:16:01.189Z,99.90
2018-12-15T07:18:30.539Z,99.90
2018-12-15T07:21:00.009Z,99.90
2018-12-15T07:23:29.457Z,99.90
2018-12-15T07:25:58.923Z,99.90
2018-12-15T07:28:28.341Z,99.90
2018-12-15T07:30:57.857Z,99.90
2018-12-15T07:33:27.416Z,99.90
2018-12-15T07:35:56.846Z,99.90
2018-12-15T07:38:26.403Z,99.90
2018-12-15T07:40:56.084Z,99.90
2018-12-15T07:43:25.485Z,99.90
2018-12-15T07:45:54.852Z,99.90
2018-12-15T07:48:24.239Z,99.90
2018-12-15T07:50:53.782Z,99.90
2018-12-15T07:53:23.154Z,99.90
2018-12-15T07:55:52.605Z,99.90
2018-12-15T07:58:22.188Z,99.90
2018-12-15T08:00:51.621Z,99.90
2018-12-15T08:03:21.180Z,99.90
2018-12-15T08:05:50.669Z,99.90
2018-12-15T08:08:20.427Z,99.90
2018-12-15T08:10:54.990Z,99.90
2018-12-15T08:13:28.591Z,99.90
2018-12-15T08:15:58.858Z,99.90
2018-12-15T08:18:28.277Z,99.90
2018-12-15T08:20:57.741Z,99.90
2018-12-15T08:23:27.109Z,99.90
2018-12-15T08:25:56.596Z,99.90
2018-12-15T08:28:26.002Z,99.90
2018-12-15T08:30:55.417Z,99.90
2018-12-15T08:33:24.977Z,99.90
2018-12-15T08:35:54.369Z,99.90
2018-12-15T08:38:23.745Z,99.90
2018-12-15T08:40:53.300Z,99.90
2018-12-15T08:43:22.812Z,99.90
2018-12-15T08:45:52.164Z,99.90
2018-12-15T08:48:21.525Z,99.90
2018-12-15T08:50:50.988Z,99.90
2018-12-15T08:53:20.429Z,99.90
2018-12-15T08:55:49.959Z,99.90
2018-12-15T08:58:19.544Z,99.90
2018-12-15T09:00:48.924Z,99.90
2018-12-15T09:03:18.265Z,99.90
2018-12-15T09:05:47.745Z,99.90
2018-12-15T09:08:17.309Z,99.90
2018-12-15T09:10:46.658Z,99.90
2018-12-15T09:13:16.120Z,99.90
2018-12-15T09:15:46.242Z,99.90
2018-12-15T09:18:15.734Z,99.90
2018-12-15T09:20:45.234Z,99.90
2018-12-15T09:23:14.795Z,99.90
2018-12-15T09:25:44.176Z,99.90
2018-12-15T09:28:13.692Z,99.90
2018-12-15T09:30:43.073Z,99.90
2018-12-15T09:33:12.545Z,99.90
2018-12-15T09:35:42.021Z,99.90
2018-12-15T09:38:11.405Z,99.90
2018-12-15T09:40:40.792Z,99.90
2018-12-15T09:43:10.292Z,99.90
2018-12-15T09:45:39.694Z,99.90
2018-12-15T09:48:09.167Z,99.90
2018-12-15T09:50:38.722Z,99.90
2018-12-15T09:53:08.078Z,99.90
2018-12-15T09:55:37.471Z,99.90
2018-12-15T09:58:07.006Z,99.90
2018-12-15T10:00:36.538Z,99.90
2018-12-15T10:03:05.928Z,99.90
2018-12-15T10:05:35.345Z,99.90
2018-12-15T10:08:04.724Z,99.90
2018-12-15T10:10:34.073Z,99.90
2018-12-15T10:13:03.613Z,99.90
2018-12-15T10:15:33.081Z,99.90
2018-12-15T10:18:03.129Z,99.90
2018-12-15T10:20:32.497Z,99.90
2018-12-15T10:23:02.074Z,99.90
2018-12-15T10:25:31.528Z,99.90
2018-12-15T10:28:01.215Z,99.90
2018-12-15T10:30:35.999Z,99.90
2018-12-15T10:33:05.381Z,99.90
2018-12-15T10:35:34.788Z,99.40
2018-12-15T10:38:04.286Z,99.00
2018-12-15T10:40:33.652Z,99.50
2018-12-15T10:43:03.128Z,99.70
2018-12-15T10:45:32.485Z,99.90
2018-12-15T10:48:02.367Z,99.40
2018-12-15T10:50:31.811Z,98.70
2018-12-15T10:53:01.241Z,99.90
2018-12-15T10:55:32.213Z,99.90
2018-12-15T10:58:02.201Z,99.50
2018-12-15T11:00:36.955Z,97.70
2018-12-15T11:03:06.499Z,97.40
2018-12-15T11:05:36.721Z,99.60
2018-12-15T11:08:06.196Z,99.90
2018-12-15T11:10:35.625Z,99.90
2018-12-15T11:13:05.185Z,99.90
2018-12-15T11:15:34.538Z,99.90
2018-12-15T11:18:03.990Z,99.90
2018-12-15T11:20:33.457Z,99.90
2018-12-15T11:23:02.893Z,99.90
2018-12-15T11:25:32.310Z,99.90
2018-12-15T11:28:01.698Z,99.90
2018-12-15T11:30:31.049Z,99.90
2018-12-15T11:33:00.797Z,99.90
2018-12-15T11:35:30.185Z,99.90
2018-12-15T11:37:59.544Z,99.90
2018-12-15T11:40:28.933Z,99.90
2018-12-15T11:42:58.269Z,99.90
2018-12-15T11:45:27.690Z,99.90
2018-12-15T11:47:57.081Z,99.90
2018-12-15T11:50:26.594Z,99.90
2018-12-15T11:52:56.029Z,99.90
2018-12-15T11:55:25.386Z,99.90
2018-12-15T11:57:54.824Z,99.90
2018-12-15T12:00:24.235Z,99.90
2018-12-15T12:02:53.612Z,99.90
2018-12-15T12:05:23.145Z,99.90
2018-12-15T12:07:52.570Z,99.90
2018-12-15T12:10:21.945Z,99.90
2018-12-15T12:12:51.514Z,99.90
2018-12-15T12:15:20.982Z,99.90
2018-12-15T12:17:50.512Z,99.90
2018-12-15T12:20:26.513Z,99.90
2018-12-15T12:22:56.001Z,99.90
2018-12-15T12:25:25.353Z,99.90
2018-12-15T12:27:55.018Z,99.90
2018-12-15T12:30:24.513Z,99.90
2018-12-15T12:32:53.927Z,99.90
2018-12-15T12:35:23.320Z,99.90
2018-12-15T12:37:52.685Z,99.90
2018-12-15T12:40:22.102Z,99.90
2018-12-15T12:42:51.570Z,99.90
2018-12-15T12:45:20.953Z,99.90
2018-12-15T12:47:50.317Z,99.90
2018-12-15T12:50:19.873Z,99.90
2018-12-15T12:52:49.223Z,99.90
2018-12-15T12:55:18.638Z,99.90
2018-12-15T12:57:48.026Z,99.90
2018-12-15T13:00:17.767Z,99.90
2018-12-15T13:02:47.121Z,99.90
2018-12-15T13:05:16.705Z,99.90
2018-12-15T13:07:46.191Z,99.90
2018-12-15T13:10:15.564Z,99.90
2018-12-15T13:12:44.995Z,99.90
2018-12-15T13:15:14.317Z,99.90
2018-12-15T13:17:43.673Z,99.90
2018-12-15T13:20:13.069Z,99.90
2018-12-15T13:22:42.413Z,99.90
2018-12-15T13:25:11.929Z,99.90
2018-12-15T13:27:41.481Z,99.90
2018-12-15T13:30:11.285Z,99.90
2018-12-15T13:32:40.621Z,99.90
2018-12-15T13:35:10.096Z,99.90
2018-12-15T13:37:39.475Z,99.90
2018-12-15T13:40:09.469Z,99.90
2018-12-15T13:42:38.898Z,99.90
2018-12-15T13:45:08.562Z,99.90
2018-12-15T13:47:37.965Z,99.90
2018-12-15T13:50:10.326Z,99.90
2018-12-15T13:52:39.933Z,99.90
2018-12-15T13:55:09.407Z,99.90
2018-12-15T13:57:38.809Z,99.90
2018-12-15T14:00:08.840Z,99.90
2018-12-15T14:02:38.240Z,99.90
2018-12-15T14:05:07.737Z,99.90
2018-12-15T14:07:37.174Z,99.90
2018-12-15T14:10:06.515Z,99.90
2018-12-15T14:12:36.365Z,99.90
2018-12-15T14:15:06.152Z,99.90
2018-12-15T14:17:35.621Z,99.90
2018-12-15T14:20:05.209Z,99.90
2018-12-15T14:22:34.590Z,99.90
2018-12-15T14:25:04.318Z,99.90
2018-12-15T14:27:33.877Z,99.90
2018-12-15T14:30:03.249Z,99.90
2018-12-15T14:32:32.630Z,99.90
2018-12-15T14:35:02.093Z,99.90
2018-12-15T14:37:31.587Z,99.90
2018-12-15T14:40:01.014Z,99.90
2018-12-15T14:42:30.358Z,99.90
2018-12-15T14:44:59.728Z,99.70
2018-12-15T14:47:29.087Z,99.90
2018-12-15T14:49:58.472Z,99.90
2018-12-15T14:52:27.854Z,99.90
2018-12-15T14:54:57.210Z,99.90
2018-12-15T14:57:26.572Z,99.90
2018-12-15T14:59:55.976Z,99.90
2018-12-15T15:02:25.392Z,99.90
2018-12-15T15:04:54.732Z,99.90
2018-12-15T15:07:24.103Z,99.90
2018-12-15T15:09:53.689Z,99.90
2018-12-15T15:12:23.112Z,99.90
2018-12-15T15:14:52.589Z,99.90
2018-12-15T15:17:22.285Z,99.90
2018-12-15T15:19:51.685Z,99.90
2018-12-15T15:22:21.157Z,99.90
2018-12-15T15:24:50.520Z,99.90
2018-12-15T15:27:20.041Z,99.90
2018-12-15T15:29:49.541Z,99.90
2018-12-15T15:32:19.039Z,99.90
2018-12-15T15:34:48.720Z,99.90
2018-12-15T15:37:18.112Z,99.90
2018-12-15T15:39:47.460Z,99.90
2018-12-15T15:42:16.925Z,99.90
2018-12-15T15:44:46.493Z,99.90
2018-12-15T15:47:15.850Z,99.90
2018-12-15T15:49:45.304Z,97.80
2018-12-15T15:52:15.660Z,96.50
2018-12-15T15:54:45.356Z,97.10
2018-12-15T15:57:17.125Z,97.60
2018-12-15T15:59:48.714Z,98.40
2018-12-15T16:02:18.477Z,98.10
2018-12-15T16:04:47.817Z,98.40
2018-12-15T16:07:17.357Z,99.20
2018-12-15T16:09:46.914Z,99.90
2018-12-15T16:12:16.549Z,99.90
2018-12-15T16:14:45.914Z,99.90
2018-12-15T16:17:15.269Z,99.30
2018-12-15T16:19:45.051Z,99.30
2018-12-15T16:22:14.473Z,99.60
2018-12-15T16:24:44.004Z,99.90
2018-12-15T16:27:13.373Z,99.90
2018-12-15T16:29:45.788Z,99.90
2018-12-15T16:32:15.164Z,99.90
2018-12-15T16:34:44.430Z,99.90
2018-12-15T16:37:13.805Z,99.90
2018-12-15T16:39:43.385Z,99.90
2018-12-15T16:42:13.388Z,99.90
2018-12-15T16:44:42.765Z,99.90
2018-12-15T16:47:12.342Z,99.90
2018-12-15T16:49:41.753Z,99.90
2018-12-15T16:52:11.145Z,99.90
2018-12-15T16:54:40.629Z,99.90
2018-12-15T16:57:10.004Z,99.90
2018-12-15T16:59:39.472Z,99.90
2018-12-15T17:02:10.130Z,99.90
2018-12-15T17:04:39.661Z,99.90
2018-12-15T17:07:09.056Z,99.90
2018-12-15T17:09:38.433Z,99.90
2018-12-15T17:12:07.865Z,99.90
2018-12-15T17:14:37.229Z,99.90
2018-12-15T17:17:06.614Z,99.90
2018-12-15T17:19:36.080Z,99.90
2018-12-15T17:22:05.585Z,99.90
2018-12-15T17:24:34.949Z,99.90
2018-12-15T17:27:04.597Z,99.90
2018-12-15T17:29:33.964Z,99.90
2018-12-15T17:32:03.501Z,99.90
2018-12-15T17:34:32.916Z,99.90
2018-12-15T17:37:02.401Z,99.90
2018-12-15T17:39:32.221Z,99.90
2018-12-15T17:42:01.626Z,99.90
2018-12-15T17:44:30.977Z,99.90
2018-12-15T17:47:00.436Z,99.90
2018-12-15T17:49:30.219Z,99.90
2018-12-15T17:51:59.634Z,99.90
2018-12-15T17:54:29.313Z,99.90
2018-12-15T17:56:58.684Z,99.90
2018-12-15T17:59:28.056Z,99.90
2018-12-15T18:01:57.552Z,99.90
2018-12-15T18:04:26.973Z,99.90
2018-12-15T18:06:56.454Z,99.90
2018-12-15T18:09:25.901Z,99.90
2018-12-15T18:11:55.248Z,99.90
2018-12-15T18:14:24.716Z,99.90
2018-12-15T18:16:54.237Z,99.90
2018-12-15T18:19:23.652Z,99.90
2018-12-15T18:21:53.151Z,99.90
2018-12-15T18:24:22.759Z,99.90
2018-12-15T18:26:52.304Z,99.90
2018-12-15T18:29:21.686Z,99.90
2018-12-15T18:31:51.474Z,99.90
2018-12-15T18:34:21.003Z,99.90
2018-12-15T18:36:50.436Z,99.90
2018-12-15T18:39:19.785Z,99.90
2018-12-15T18:41:49.273Z,99.90
2018-12-15T18:44:18.841Z,99.90
2018-12-15T18:46:48.212Z,99.90
2018-12-15T18:49:17.789Z,99.90
2018-12-15T18:51:47.204Z,99.90
2018-12-15T18:54:16.689Z,99.90
2018-12-15T18:56:46.377Z,99.90
2018-12-15T18:59:16.073Z,99.90
2018-12-15T19:01:45.469Z,99.90
2018-12-15T19:04:14.892Z,99.90
2018-12-15T19:06:44.303Z,99.90
2018-12-15T19:09:13.707Z,99.90
2018-12-15T19:11:43.060Z,99.90
2018-12-15T19:14:12.481Z,99.90
2018-12-15T19:16:41.885Z,99.90
2018-12-15T19:19:11.274Z,99.90
2018-12-15T19:21:40.767Z,99.90
2018-12-15T19:24:10.257Z,99.90
2018-12-15T19:26:39.830Z,99.90
2018-12-15T19:29:09.308Z,99.90
2018-12-15T19:31:38.754Z,99.90
2018-12-15T19:34:08.344Z,99.90
2018-12-15T19:36:37.692Z,99.90
2018-12-15T19:39:07.899Z,99.90
2018-12-15T19:41:37.527Z,99.90
2018-12-15T19:44:07.078Z,99.90
2018-12-15T19:46:36.784Z,99.90
2018-12-15T19:49:06.190Z,99.90
2018-12-15T19:51:35.785Z,99.90
2018-12-15T19:54:05.143Z,99.90
2018-12-15T19:56:34.794Z,99.90
2018-12-15T19:59:04.281Z,99.90
2018-12-15T20:01:33.722Z,99.90
2018-12-15T20:04:03.349Z,99.90
2018-12-15T20:06:32.886Z,99.90
2018-12-15T20:09:02.481Z,99.90
2018-12-15T20:11:32.033Z,99.90
2018-12-15T20:14:01.493Z,99.90
2018-12-15T20:16:31.138Z,99.90
2018-12-15T20:19:00.661Z,99.90
2018-12-15T20:21:35.864Z,99.90
2018-12-15T20:24:01.854Z,99.90
2018-12-15T20:26:31.381Z,99.90
2018-12-15T20:29:00.761Z,99.90
2018-12-15T20:31:30.317Z,99.90
2018-12-15T20:33:59.872Z,99.90
2018-12-15T20:36:29.269Z,99.90
2018-12-15T20:38:58.757Z,99.90
2018-12-15T20:41:28.157Z,99.90
2018-12-15T20:43:57.647Z,99.90
2018-12-15T20:46:27.022Z,99.90
2018-12-15T20:48:56.413Z,99.90
2018-12-15T20:51:25.834Z,99.90
2018-12-15T20:53:55.220Z,99.90
2018-12-15T20:56:24.683Z,99.90
2018-12-15T20:58:54.063Z,99.90
2018-12-15T21:01:23.442Z,99.90
2018-12-15T21:03:52.996Z,99.90
2018-12-15T21:06:22.481Z,99.90
2018-12-15T21:08:51.861Z,99.90
2018-12-15T21:11:24.195Z,99.90
2018-12-15T21:13:52.819Z,99.90
2018-12-15T21:16:22.240Z,99.90
2018-12-15T21:18:51.629Z,99.90
2018-12-15T21:21:21.254Z,99.90
2018-12-15T21:23:50.861Z,99.90
2018-12-15T21:26:20.263Z,99.90
2018-12-15T21:28:49.818Z,99.90
2018-12-15T21:31:19.232Z,99.90
2018-12-15T21:33:48.716Z,99.90
2018-12-15T21:36:18.629Z,99.90
2018-12-15T21:38:48.193Z,99.90
2018-12-15T21:41:17.516Z,99.90
2018-12-15T21:43:47.296Z,99.90
2018-12-15T21:46:16.957Z,99.90
2018-12-15T21:48:47.253Z,99.90
2018-12-15T21:51:16.665Z,99.90
2018-12-15T21:53:46.216Z,99.90
2018-12-15T21:56:15.709Z,99.90
2018-12-15T21:58:46.985Z,99.90
2018-12-15T22:01:17.034Z,99.90
2018-12-15T22:03:46.513Z,99.90
2018-12-15T22:06:15.873Z,99.90
2018-12-15T22:08:45.330Z,99.90
2018-12-15T22:11:14.929Z,99.90
2018-12-15T22:13:46.192Z,99.90
2018-12-15T22:16:15.581Z,99.90
2018-12-15T22:18:44.982Z,99.90
2018-12-15T22:21:15.310Z,99.90
2018-12-15T22:23:44.682Z,99.90
2018-12-15T22:26:14.157Z,99.90
2018-12-15T22:28:43.780Z,99.90
2018-12-15T22:31:13.548Z,99.90
2018-12-15T22:33:43.034Z,99.90
2018-12-15T22:36:12.408Z,99.90
2018-12-15T22:38:41.780Z,99.90
2018-12-15T22:41:11.249Z,99.90
2018-12-15T22:43:40.632Z,99.90
2018-12-15T22:46:10.077Z,99.90
2018-12-15T22:48:39.441Z,99.90
2018-12-15T22:51:08.910Z,99.90
2018-12-15T22:53:38.277Z,99.90
2018-12-15T22:56:07.716Z,99.90
2018-12-15T22:58:37.299Z,99.90
2018-12-15T23:01:11.749Z,99.90
2018-12-15T23:03:41.013Z,99.90
2018-12-15T23:06:10.485Z,99.90
2018-12-15T23:08:39.961Z,99.90
2018-12-15T23:11:09.349Z,99.90
2018-12-15T23:13:38.838Z,99.90
2018-12-15T23:16:08.366Z,99.90
2018-12-15T23:18:37.780Z,99.90
2018-12-15T23:21:07.165Z,99.90
2018-12-15T23:23:36.912Z,99.90
2018-12-15T23:26:06.309Z,99.90
2018-12-15T23:28:35.685Z,99.90
2018-12-15T23:31:05.134Z,99.90
2018-12-15T23:33:34.481Z,99.90
2018-12-15T23:36:04.043Z,99.90
2018-12-15T23:38:33.400Z,99.90
2018-12-15T23:41:02.793Z,99.90
2018-12-15T23:43:32.195Z,99.90
2018-12-15T23:46:01.743Z,99.90
2018-12-15T23:48:31.097Z,99.90
2018-12-15T23:51:00.490Z,99.90
2018-12-15T23:53:29.977Z,99.90
2018-12-15T23:55:59.455Z,99.90
2018-12-15T23:58:28.817Z,99.90
